NEW MELONES RESERVOIR (NML)

Elevation: 1135' · STANISLAUS R basin · Operator: US Bureau of Reclamation

Provisional data, subject to change.
Query executed Sunday at 2:05:09   clock

Select a sensor type for a plot of data.
Note: Reservoir Flows are daily averages.

Earlier

Date RES ELE    STORAGE    RES CHG    TOC STO    ABV TOC    OUTFLOW    INFLOW    EVAP    FNF    RIV REL    PPT INC    SPILL    DIS PWR   
 FEET   AF   AF   AF   AF   CFS   CFS   CFS   CFS   CFS   INCHES   CFS   CFS  
01/16/2016 819.76 341560 2374 1970000 -1628440 41 1248 10 968 0 0.18 0 41
01/17/2016 820.31 343607 2047 1970000 -1626393 34 1072 6 788 0 0.01 0 34
01/18/2016 821.28 347235 3628 1970000 -1622765 11 1842 2 1590 0 1.01 0 11
01/19/2016 822.43 351566 4331 1970000 -1618434 15 2200 1 2010 0 0.60 0 15
01/20/2016 823.29 354825 3259 1970000 -1615175 16 1659 0 1478 0 0.28 0 16
01/21/2016 823.99 357489 2664 1970000 -1612511 47 1402 12 1148 0 0.00 0 47
01/22/2016 824.74 360361 2872 1970000 -1609639 12 1471 11 1252 0 0.00 0 12
01/23/2016 826.10 365599 5238 1970000 -1604401 28 2680 11 2672 0 0.90 0 28
01/24/2016 827.11 369519 3920 1970000 -1600481 28 2004 0 1851 0 0.36 0 28
01/25/2016 827.87 372486 2967 1970000 -1597514 66 1562 0 1358 0 0.00 0 66
01/26/2016 828.53 375075 2589 1970000 -1594925 29 1334 0 1102 0 0.00 0 29
01/27/2016 829.12 377395 2320 1970000 -1592605 72 1242 0 1002 0 0.00 0 72
01/28/2016 829.75 379885 2490 1970000 -1590115 20 1275 0 1020 0 0.00 0 20
01/29/2016 830.34 382226 2341 1970000 -1587774 18 1207 9 1047 0 0.03 0 18
01/30/2016 831.83 388173 5947 1970000 -1581827 66 3150 86 4049 0 0.11 0 66
01/31/2016 833.01 392920 4747 1970000 -1577080 33 2433 7 2786 0 0.33 0 33
02/01/2016 833.79 396080 3160 1970000 -1573920 130 1726 3 1799 0 0.01 0 130
02/02/2016 834.49 398929 2849 1970000 -1571071 13 1458 9 1415 0 0.00 0 13
02/03/2016 835.18 401746 2817 1970000 -1568254 39 1460 1 1372 0 0.00 0 39
02/04/2016 835.74 404043 2297 1970000 -1565957 51 1210 1 1095 0 0.00 0 51
02/05/2016 836.30 406348 2305 1970000 -1563652 57 1227 8 1077 0 0.00 0 57
02/06/2016 836.83 408535 2187 1970000 -1561465 43 1154 8 990 0 0.00 0 43
02/07/2016 837.40 410898 2363 1970000 -1559102 30 1229 8 1073 0 0.00 0 30
02/08/2016 837.95 413181 2283 1970000 -1556819 74 1236 11 1141 0 0.00 0 74
02/09/2016 838.50 415478 2297 1970000 -1554522 77 1244 9 1196 0 0.00 0 77
02/10/2016 839.00 417566 2088 1970000 -1552434 39 1125 33 1096 0 0.00 0 39
02/11/2016 839.49 419625 2059 1970000 -1550375 189 1260 33 1236 0 0.00 0 189
02/12/2016 839.96 421601 1976 1970000 -1548399 202 1218 20 1198 0 0.00 0 202
02/13/2016 -- -- -- 1970000 -- -- -- -- -- -- -- -- --
02/14/2016 -- -- -- -- -- -- -- -- -- -- -- -- --

Later | Latest

Warning! This data is preliminary and subject to revision.

Show NML Map | Plot NML Data | 1 Month NML Data | Real-Time NML Data | NML Info